createdAt,value
2022-12-08T00:02:11.151Z,9.00
2022-12-08T00:07:39.955Z,10.55
2022-12-08T00:12:36.920Z,10.13
2022-12-08T00:17:33.689Z,11.23
2022-12-08T00:22:32.474Z,11.07
2022-12-08T00:27:29.225Z,11.35
2022-12-08T00:32:34.848Z,11.07
2022-12-08T00:37:31.697Z,11.00
2022-12-08T00:42:28.575Z,10.90
2022-12-08T00:47:25.489Z,11.05
2022-12-08T00:52:22.207Z,10.38
2022-12-08T00:57:19.137Z,9.50
2022-12-08T01:02:24.794Z,9.52
2022-12-08T01:07:21.509Z,8.63
2022-12-08T01:12:18.460Z,8.05
2022-12-08T01:17:24.477Z,7.63
2022-12-08T01:22:21.429Z,8.00
2022-12-08T01:27:18.109Z,6.97
2022-12-08T01:32:14.778Z,7.22
2022-12-08T01:37:12.786Z,7.13
2022-12-08T01:42:21.429Z,6.32
2022-12-08T01:47:18.313Z,6.03
2022-12-08T01:52:21.472Z,6.80
2022-12-08T01:57:23.737Z,7.00
2022-12-08T02:02:21.983Z,6.68
2022-12-08T02:07:18.935Z,5.57
2022-12-08T02:12:21.680Z,5.47
2022-12-08T02:17:31.748Z,3.90
2022-12-08T02:28:13.011Z,4.40
2022-12-08T02:33:50.001Z,4.10
2022-12-08T02:39:00.451Z,5.50
2022-12-08T02:44:39.114Z,5.35
2022-12-08T02:49:36.246Z,5.55
2022-12-08T02:59:51.003Z,4.95
2022-12-08T03:05:06.345Z,5.30
2022-12-08T03:10:12.999Z,3.97
2022-12-08T03:15:14.580Z,3.95
2022-12-08T03:20:26.790Z,3.83
2022-12-08T03:25:29.520Z,4.57
2022-12-08T03:30:28.801Z,3.40
2022-12-08T03:35:30.206Z,3.15
2022-12-08T03:40:27.041Z,3.50
2022-12-08T03:45:23.797Z,5.82
2022-12-08T03:50:20.648Z,3.50
2022-12-08T03:55:17.530Z,3.30
2022-12-08T04:00:16.819Z,3.35
2022-12-08T04:05:13.708Z,2.63
2022-12-08T04:10:12.974Z,2.80
2022-12-08T04:15:10.799Z,2.42
2022-12-08T04:20:07.849Z,2.70
2022-12-08T04:25:05.102Z,2.10
2022-12-08T04:30:04.338Z,1.90
2022-12-08T04:35:01.181Z,1.83
2022-12-08T04:39:57.798Z,1.77
2022-12-08T04:45:05.593Z,1.90
2022-12-08T04:50:02.879Z,1.60
2022-12-08T04:54:59.741Z,1.63
2022-12-08T04:59:56.681Z,1.52
2022-12-08T05:04:56.478Z,1.40
2022-12-08T05:09:53.425Z,1.50
2022-12-08T05:14:50.267Z,1.75
2022-12-08T05:19:50.291Z,1.83
2022-12-08T05:24:47.953Z,1.90
2022-12-08T05:29:50.543Z,1.63
2022-12-08T05:46:49.509Z,1.20
2022-12-08T06:26:26.824Z,1.60
2022-12-08T06:31:25.063Z,1.60
2022-12-08T06:36:24.197Z,1.50
2022-12-08T06:41:21.244Z,1.50
2022-12-08T08:34:18.703Z,4.47
2022-12-08T08:39:15.331Z,4.22
2022-12-08T08:44:14.845Z,4.82
2022-12-08T11:43:30.003Z,2.78
2022-12-08T11:48:34.697Z,2.70
2022-12-08T11:54:08.942Z,3.20
2022-12-08T11:59:26.582Z,3.42
2022-12-08T12:04:48.136Z,3.13
2022-12-08T12:10:24.622Z,2.80
2022-12-08T12:16:11.610Z,2.95
2022-12-08T12:28:11.006Z,23.92
2022-12-08T12:33:25.923Z,3.50
2022-12-08T12:43:42.242Z,3.42
2022-12-08T12:48:49.312Z,3.58
2022-12-08T13:15:40.153Z,4.47
2022-12-08T13:21:17.834Z,5.22
2022-12-08T13:26:17.989Z,4.25
2022-12-08T14:08:59.933Z,3.70
2022-12-08T14:13:51.386Z,3.80
2022-12-08T14:39:29.239Z,3.95
2022-12-08T14:44:31.347Z,3.88
2022-12-08T14:54:33.060Z,3.95
2022-12-08T14:59:31.274Z,4.85
2022-12-08T15:05:09.678Z,4.43
2022-12-08T15:10:27.174Z,3.78
2022-12-08T15:15:23.641Z,4.40
2022-12-08T15:20:33.384Z,4.30
2022-12-08T15:25:31.322Z,4.10
2022-12-08T15:30:28.512Z,5.72
2022-12-08T15:35:25.073Z,4.50
2022-12-08T15:40:23.052Z,5.15
2022-12-08T15:45:31.128Z,4.80
2022-12-08T15:50:28.200Z,5.10
2022-12-08T16:06:20.203Z,6.47
2022-12-08T16:11:56.532Z,6.57
2022-12-08T16:16:43.425Z,6.80
2022-12-08T16:22:23.800Z,7.40
2022-12-08T16:32:16.751Z,8.57
2022-12-08T16:37:18.745Z,8.60
2022-12-08T16:42:35.943Z,8.75
2022-12-08T16:47:36.371Z,8.75
2022-12-08T16:52:34.608Z,7.68
2022-12-08T16:57:43.013Z,9.27
2022-12-08T17:02:41.260Z,11.05
2022-12-08T17:07:43.256Z,10.65
2022-12-08T17:12:40.538Z,10.85
2022-12-08T17:17:38.878Z,10.80
2022-12-08T17:22:38.437Z,10.50
2022-12-08T17:27:36.152Z,11.18
2022-12-08T17:32:32.879Z,11.43
2022-12-08T17:37:29.692Z,12.18
2022-12-08T17:42:29.703Z,12.07
2022-12-08T17:47:29.778Z,10.98
2022-12-08T17:52:28.680Z,11.95
2022-12-08T17:57:25.860Z,12.52
2022-12-08T18:02:25.130Z,12.25
2022-12-08T18:07:23.153Z,12.73
2022-12-08T18:12:24.001Z,11.55
2022-12-08T18:17:20.971Z,11.38
2022-12-08T18:22:17.855Z,11.65
2022-12-08T18:27:18.952Z,11.82
2022-12-08T18:32:15.859Z,12.50
2022-12-08T18:37:12.555Z,11.27
2022-12-08T18:42:23.531Z,11.57
2022-12-08T18:47:20.321Z,11.88
2022-12-08T18:57:22.488Z,12.45
2022-12-08T19:02:29.634Z,12.45
2022-12-08T19:07:27.271Z,12.55
2022-12-08T19:12:24.095Z,12.95
2022-12-08T19:17:21.172Z,12.48
2022-12-08T19:27:32.482Z,13.70
2022-12-08T19:32:30.953Z,13.52
2022-12-08T19:37:30.649Z,14.40
2022-12-08T19:42:46.210Z,14.73
2022-12-08T19:52:54.985Z,14.93
2022-12-08T19:57:52.482Z,15.52
2022-12-08T20:02:49.436Z,15.30
2022-12-08T20:13:19.468Z,15.45
2022-12-08T20:23:23.825Z,15.48
2022-12-08T20:28:20.891Z,14.48
2022-12-08T20:38:14.786Z,13.85
2022-12-08T20:43:11.741Z,15.60
2022-12-08T20:48:14.372Z,15.13
2022-12-08T20:53:11.586Z,15.25
2022-12-08T20:58:08.736Z,16.13
2022-12-08T21:08:02.668Z,15.75
2022-12-08T21:18:08.338Z,15.82
2022-12-08T21:28:32.779Z,14.98
2022-12-08T21:39:15.814Z,14.65
2022-12-08T21:44:38.398Z,15.50
2022-12-08T21:49:43.484Z,14.27
2022-12-08T21:54:54.845Z,13.18
2022-12-08T22:00:06.977Z,13.38
2022-12-08T22:05:21.658Z,12.52
2022-12-08T22:10:29.591Z,12.35
2022-12-08T22:15:31.385Z,11.90
2022-12-08T22:20:29.450Z,11.50
2022-12-08T22:25:28.426Z,12.05
2022-12-08T22:30:38.851Z,12.02
2022-12-08T22:35:36.220Z,11.93
2022-12-08T22:40:33.324Z,11.00
2022-12-08T22:50:27.458Z,11.05
2022-12-08T22:55:24.643Z,11.88
2022-12-08T23:00:21.729Z,11.07
2022-12-08T23:10:19.003Z,10.82
2022-12-08T23:15:17.028Z,11.77
2022-12-08T23:20:17.703Z,11.05
2022-12-08T23:25:22.532Z,10.30
2022-12-08T23:30:27.828Z,12.05
2022-12-08T23:35:27.398Z,11.55
2022-12-08T23:40:24.744Z,10.98
2022-12-08T23:45:22.088Z,10.00
2022-12-08T23:50:19.887Z,9.68
2022-12-08T23:55:24.329Z,10.35
